createdAt,value
2022-10-08T00:02:55.802Z,101298.66
2022-10-08T00:05:59.587Z,101299.72
2022-10-08T00:09:02.338Z,101300.28
2022-10-08T00:11:59.529Z,101282.72
2022-10-08T00:14:56.454Z,101293.97
2022-10-08T00:17:54.076Z,101285.31
2022-10-08T00:20:50.430Z,101275.69
2022-10-08T00:23:48.182Z,101278.53
2022-10-08T00:26:45.913Z,101275.84
2022-10-08T00:29:44.726Z,101275.69
2022-10-08T00:32:41.725Z,101278.63
2022-10-08T00:35:39.310Z,101275.69
2022-10-08T00:38:36.812Z,101255.88
2022-10-08T00:41:34.921Z,101256.97
2022-10-08T00:44:53.507Z,101268.50
2022-10-08T00:47:50.819Z,101272.72
2022-10-08T00:50:47.828Z,101265.00
2022-10-08T00:53:45.003Z,101257.94
2022-10-08T00:56:42.022Z,101252.22
2022-10-08T00:59:38.526Z,101250.28
2022-10-08T01:02:35.943Z,101254.59
2022-10-08T01:06:00.442Z,101249.91
2022-10-08T01:09:06.000Z,101256.63
2022-10-08T01:12:23.148Z,101249.72
2022-10-08T01:15:30.268Z,101253.09
2022-10-08T01:18:58.994Z,101267.84
2022-10-08T01:22:35.986Z,101273.59
2022-10-08T01:25:35.766Z,101265.63
2022-10-08T01:28:56.530Z,101272.09
2022-10-08T01:32:14.703Z,101270.13
2022-10-08T01:35:14.522Z,101270.38
2022-10-08T01:38:14.117Z,101262.53
2022-10-08T01:41:12.468Z,101263.19
2022-10-08T01:44:19.904Z,101268.38
2022-10-08T01:47:19.990Z,101269.00
2022-10-08T01:50:20.433Z,101270.09
2022-10-08T01:53:17.847Z,101264.28
2022-10-08T01:56:18.473Z,101273.66
2022-10-08T01:59:45.794Z,101254.16
2022-10-08T02:02:42.745Z,101273.22
2022-10-08T02:05:41.877Z,101258.56
2022-10-08T02:08:38.643Z,101264.88
2022-10-08T02:11:36.001Z,101258.94
2022-10-08T02:14:33.431Z,101246.66
2022-10-08T02:17:43.725Z,101266.16
2022-10-08T02:20:53.526Z,101270.38
2022-10-08T02:24:00.737Z,101271.13
2022-10-08T02:26:58.041Z,101272.94
2022-10-08T02:30:01.582Z,101273.75
2022-10-08T02:33:02.687Z,101270.91
2022-10-08T02:35:59.934Z,101262.47
2022-10-08T02:38:58.277Z,101253.91
2022-10-08T02:41:58.169Z,101254.41
2022-10-08T02:44:58.901Z,101256.81
2022-10-08T02:48:00.709Z,101253.31
2022-10-08T02:50:59.437Z,101253.25
2022-10-08T02:53:56.622Z,101244.75
2022-10-08T02:57:07.124Z,101247.00
2022-10-08T03:00:07.481Z,101253.78
2022-10-08T03:03:13.984Z,101264.28
2022-10-08T03:06:11.094Z,101272.22
2022-10-08T03:09:07.605Z,101280.47
2022-10-08T03:12:05.971Z,101282.56
2022-10-08T03:15:02.728Z,101280.09
2022-10-08T03:18:06.404Z,101290.03
2022-10-08T03:21:04.249Z,101279.56
2022-10-08T03:24:01.856Z,101267.13
2022-10-08T03:26:58.827Z,101269.78
2022-10-08T03:29:57.469Z,101266.38
2022-10-08T03:32:55.005Z,101272.72
2022-10-08T03:35:52.029Z,101266.13
2022-10-08T03:38:49.229Z,101261.09
2022-10-08T03:41:46.758Z,101262.94
2022-10-08T03:44:44.119Z,101266.97
2022-10-08T03:47:40.542Z,101277.84
2022-10-08T03:50:37.692Z,101275.31
2022-10-08T03:53:35.540Z,101288.00
2022-10-08T03:56:32.935Z,101290.28
2022-10-08T03:59:31.045Z,101285.84
2022-10-08T04:02:27.828Z,101288.25
2022-10-08T04:05:24.709Z,101286.84
2022-10-08T04:08:22.235Z,101288.31
2022-10-08T04:11:18.891Z,101291.25
2022-10-08T04:14:15.664Z,101292.38
2022-10-08T04:17:13.218Z,101287.94
2022-10-08T04:20:10.039Z,101289.94
2022-10-08T04:23:07.882Z,101289.84
2022-10-08T04:26:05.094Z,101293.16
2022-10-08T04:29:01.963Z,101290.78
2022-10-08T04:31:59.067Z,101285.44
2022-10-08T04:34:55.738Z,101277.56
2022-10-08T04:37:52.671Z,101286.63
2022-10-08T04:41:00.824Z,101278.94
2022-10-08T04:43:59.919Z,101303.41
2022-10-08T04:46:57.071Z,101294.22
2022-10-08T04:49:54.056Z,101280.91
2022-10-08T04:52:50.899Z,101287.53
2022-10-08T04:55:48.058Z,101293.31
2022-10-08T04:58:44.950Z,101294.59
2022-10-08T05:01:41.942Z,101293.97
2022-10-08T05:04:38.902Z,101296.38
2022-10-08T05:07:35.712Z,101293.88
2022-10-08T05:10:33.208Z,101300.00
2022-10-08T05:13:29.682Z,101303.22
2022-10-08T05:16:27.324Z,101303.59
2022-10-08T05:19:24.170Z,101317.81
2022-10-08T05:22:21.009Z,101323.03
2022-10-08T05:25:17.850Z,101330.56
2022-10-08T05:28:14.694Z,101336.16
2022-10-08T05:31:11.733Z,101324.69
2022-10-08T05:34:09.006Z,101320.56
2022-10-08T05:37:06.019Z,101322.56
2022-10-08T05:40:03.122Z,101331.72
2022-10-08T05:43:00.106Z,101331.91
2022-10-08T05:45:56.784Z,101339.25
2022-10-08T05:48:54.769Z,101333.22
2022-10-08T05:51:51.929Z,101342.66
2022-10-08T05:54:48.974Z,101350.53
2022-10-08T05:57:46.541Z,101349.13
2022-10-08T06:00:43.803Z,101358.31
2022-10-08T06:03:41.515Z,101361.66
2022-10-08T06:06:40.575Z,101364.34
2022-10-08T06:09:38.204Z,101359.38
2022-10-08T06:12:35.236Z,101367.84
2022-10-08T06:15:32.266Z,101370.09
2022-10-08T06:18:30.644Z,101372.78
2022-10-08T06:21:29.406Z,101375.41
2022-10-08T06:24:27.125Z,101387.88
2022-10-08T06:27:24.118Z,101390.81
2022-10-08T06:30:21.123Z,101410.41
2022-10-08T06:33:18.110Z,101405.09
2022-10-08T06:36:19.171Z,101407.28
2022-10-08T06:39:17.894Z,101410.16
2022-10-08T06:42:14.955Z,101417.28
2022-10-08T06:45:13.909Z,101410.25
2022-10-08T06:48:11.452Z,101411.34
2022-10-08T06:51:13.809Z,101422.44
2022-10-08T06:54:11.473Z,101427.28
2022-10-08T06:57:09.334Z,101423.28
2022-10-08T07:00:06.922Z,101433.16
2022-10-08T07:03:03.943Z,101422.88
2022-10-08T07:06:05.322Z,101428.34
2022-10-08T07:09:02.595Z,101439.53
2022-10-08T07:11:59.884Z,101438.09
2022-10-08T07:14:56.673Z,101453.16
2022-10-08T07:17:54.190Z,101449.69
2022-10-08T07:20:56.252Z,101460.78
2022-10-08T07:23:53.325Z,101462.53
2022-10-08T07:26:50.088Z,101469.81
2022-10-08T07:29:47.068Z,101471.97
2022-10-08T07:32:43.811Z,101478.66
2022-10-08T07:35:41.387Z,101480.44
2022-10-08T07:38:39.326Z,101484.19
2022-10-08T07:41:36.316Z,101476.69
2022-10-08T07:44:33.109Z,101495.72
2022-10-08T07:47:30.110Z,101502.97
2022-10-08T07:50:27.204Z,101499.00
2022-10-08T07:53:24.094Z,101496.06
2022-10-08T07:56:21.352Z,101499.72
2022-10-08T07:59:18.135Z,101503.44
2022-10-08T08:02:15.186Z,101514.00
2022-10-08T08:05:12.307Z,101515.63
2022-10-08T08:08:09.595Z,101518.28
2022-10-08T08:11:07.893Z,101517.47
2022-10-08T08:14:05.096Z,101517.78
2022-10-08T08:17:02.389Z,101517.88
2022-10-08T08:19:59.509Z,101526.91
2022-10-08T08:22:56.908Z,101526.38
2022-10-08T08:25:53.790Z,101532.41
2022-10-08T08:28:52.438Z,101536.84
2022-10-08T08:31:49.745Z,101545.09
2022-10-08T08:34:47.323Z,101553.38
2022-10-08T08:37:44.295Z,101547.59
2022-10-08T08:40:41.401Z,101541.72
2022-10-08T08:43:38.002Z,101553.13
2022-10-08T08:46:36.600Z,101555.03
2022-10-08T08:49:42.032Z,101563.31
2022-10-08T08:52:40.747Z,101560.19
2022-10-08T08:55:43.867Z,101562.69
2022-10-08T08:58:43.103Z,101572.94
2022-10-08T09:01:43.486Z,101587.81
2022-10-08T09:04:45.468Z,101570.38
2022-10-08T09:07:47.104Z,101575.22
2022-10-08T09:10:52.834Z,101579.38
2022-10-08T09:13:51.287Z,101593.53
2022-10-08T09:16:48.214Z,101592.13
2022-10-08T09:19:45.591Z,101588.44
2022-10-08T09:22:43.281Z,101589.06
2022-10-08T09:25:39.838Z,101605.69
2022-10-08T09:28:44.707Z,101593.69
2022-10-08T09:31:44.873Z,101613.28
2022-10-08T09:34:43.300Z,101615.25
2022-10-08T09:37:40.152Z,101619.38
2022-10-08T09:40:36.797Z,101616.84
2022-10-08T09:43:35.050Z,101622.00
2022-10-08T09:46:33.086Z,101617.81
2022-10-08T09:49:36.095Z,101622.22
2022-10-08T09:52:34.118Z,101624.88
2022-10-08T09:55:32.098Z,101620.19
2022-10-08T09:58:31.194Z,101616.59
2022-10-08T10:01:28.689Z,101617.50
2022-10-08T10:04:36.459Z,101622.94
2022-10-08T10:07:41.151Z,101621.09
2022-10-08T10:10:39.613Z,101637.44
2022-10-08T10:13:38.565Z,101634.97
2022-10-08T10:16:37.911Z,101637.63
2022-10-08T10:19:59.635Z,101619.91
2022-10-08T10:23:13.783Z,101627.50
2022-10-08T10:26:13.416Z,101641.00
2022-10-08T10:29:20.776Z,101626.88
2022-10-08T10:32:21.792Z,101629.50
2022-10-08T10:35:29.174Z,101636.56
2022-10-08T10:38:28.485Z,101626.94
2022-10-08T10:41:52.873Z,101637.94
2022-10-08T10:44:54.741Z,101641.97
2022-10-08T10:47:53.382Z,101633.41
2022-10-08T10:51:07.951Z,101641.06
2022-10-08T10:54:26.859Z,101637.84
2022-10-08T10:58:01.924Z,101632.00
2022-10-08T11:01:23.975Z,101630.81
2022-10-08T11:04:32.635Z,101634.31
2022-10-08T11:07:50.344Z,101630.28
2022-10-08T11:11:05.597Z,101632.31
2022-10-08T11:14:21.524Z,101634.97
2022-10-08T11:17:52.787Z,101646.69
2022-10-08T11:21:31.966Z,101646.50
2022-10-08T11:25:13.797Z,101636.09
2022-10-08T11:28:39.473Z,101650.78
2022-10-08T11:31:42.599Z,101639.47
2022-10-08T11:34:40.269Z,101646.94
2022-10-08T11:37:51.423Z,101630.91
2022-10-08T11:40:49.408Z,101643.72
2022-10-08T11:43:53.283Z,101641.84
2022-10-08T11:46:49.900Z,101653.47
2022-10-08T11:49:51.271Z,101650.88
2022-10-08T11:52:48.103Z,101655.06
2022-10-08T11:55:53.200Z,101649.94
2022-10-08T11:58:53.425Z,101654.28
2022-10-08T12:02:28.793Z,101677.25
2022-10-08T12:05:25.983Z,101688.00
2022-10-08T12:08:50.554Z,101697.47
2022-10-08T12:11:48.329Z,101694.16
2022-10-08T12:14:45.837Z,101710.69
2022-10-08T12:18:13.582Z,101714.91
2022-10-08T12:21:16.170Z,101717.44
2022-10-08T12:24:38.234Z,101721.84
2022-10-08T12:27:38.005Z,101716.84
2022-10-08T12:30:48.479Z,101718.06
2022-10-08T12:33:55.397Z,101733.38
2022-10-08T12:36:55.254Z,101709.69
2022-10-08T12:39:53.173Z,101713.06
2022-10-08T12:42:50.342Z,101717.03
2022-10-08T12:45:57.782Z,101727.47
2022-10-08T12:49:09.317Z,101717.13
2022-10-08T12:52:07.598Z,101704.44
2022-10-08T12:55:05.051Z,101709.34
2022-10-08T12:58:02.339Z,101710.88
2022-10-08T13:01:00.818Z,101706.38
2022-10-08T13:04:34.018Z,101713.25
2022-10-08T13:07:33.376Z,101712.00
2022-10-08T13:10:30.349Z,101713.25
2022-10-08T13:13:33.580Z,101722.22
2022-10-08T13:16:30.622Z,101720.06
2022-10-08T13:19:35.287Z,101722.66
2022-10-08T13:22:32.471Z,101724.06
2022-10-08T13:25:37.938Z,101728.22
2022-10-08T13:28:59.199Z,101718.97
2022-10-08T13:32:11.479Z,101721.19
2022-10-08T13:35:20.290Z,101726.00
2022-10-08T13:38:21.761Z,101725.16
2022-10-08T13:41:25.262Z,101732.91
2022-10-08T13:44:22.246Z,101737.41
2022-10-08T13:47:20.755Z,101735.16
2022-10-08T13:50:18.688Z,101736.31
2022-10-08T13:53:17.407Z,101733.91
2022-10-08T13:56:14.171Z,101742.47
2022-10-08T13:59:12.246Z,101742.50
2022-10-08T14:02:13.713Z,101749.88
2022-10-08T14:05:11.557Z,101747.13
2022-10-08T14:08:20.273Z,101760.16
2022-10-08T14:11:18.159Z,101756.88
2022-10-08T14:14:15.578Z,101767.78
2022-10-08T14:17:12.373Z,101758.53
2022-10-08T14:20:09.639Z,101753.88
2022-10-08T14:23:06.452Z,101761.13
2022-10-08T14:26:03.479Z,101758.72
2022-10-08T14:29:00.449Z,101765.38
2022-10-08T14:31:57.457Z,101773.19
2022-10-08T14:34:54.694Z,101778.91
2022-10-08T14:37:51.611Z,101780.41
2022-10-08T14:40:48.287Z,101774.47
2022-10-08T14:43:45.364Z,101785.28
2022-10-08T14:46:47.497Z,101795.72
2022-10-08T14:49:44.679Z,101776.28
2022-10-08T14:52:44.691Z,101793.88
2022-10-08T14:56:00.812Z,101797.91
2022-10-08T14:58:59.513Z,101825.00
2022-10-08T15:01:56.538Z,101808.72
2022-10-08T15:04:54.953Z,101822.84
2022-10-08T15:07:52.340Z,101827.25
2022-10-08T15:10:49.438Z,101825.31
2022-10-08T15:13:46.451Z,101819.44
2022-10-08T15:16:43.789Z,101836.72
2022-10-08T15:19:41.594Z,101833.41
2022-10-08T15:22:38.325Z,101826.81
2022-10-08T15:25:35.443Z,101831.69
2022-10-08T15:28:32.821Z,101833.75
2022-10-08T15:31:30.269Z,101843.03
2022-10-08T15:34:27.163Z,101848.59
2022-10-08T15:37:24.738Z,101847.38
2022-10-08T15:40:22.731Z,101843.88
2022-10-08T15:43:19.330Z,101855.47
2022-10-08T15:46:17.606Z,101855.94
2022-10-08T15:49:14.119Z,101870.34
2022-10-08T15:52:21.120Z,101872.47
2022-10-08T15:55:18.361Z,101882.22
2022-10-08T15:58:32.603Z,101887.88
2022-10-08T16:01:35.436Z,101893.59
2022-10-08T16:04:32.573Z,101907.66
2022-10-08T16:07:29.594Z,101905.00
2022-10-08T16:10:26.465Z,101907.44
2022-10-08T16:13:23.595Z,101906.69
2022-10-08T16:16:21.207Z,101912.66
2022-10-08T16:19:22.657Z,101908.00
2022-10-08T16:22:19.689Z,101927.13
2022-10-08T16:25:16.424Z,101937.88
2022-10-08T16:28:13.528Z,101932.81
2022-10-08T16:31:11.494Z,101936.66
2022-10-08T16:34:19.514Z,101944.41
2022-10-08T16:37:18.227Z,101947.25
2022-10-08T16:40:15.845Z,101951.00
2022-10-08T16:43:13.521Z,101958.19
2022-10-08T16:46:18.086Z,101952.94
2022-10-08T16:49:22.715Z,101958.25
2022-10-08T16:52:20.706Z,101972.59
2022-10-08T16:55:18.379Z,101973.63
2022-10-08T16:58:15.176Z,101983.66
2022-10-08T17:01:12.873Z,101989.72
2022-10-08T17:04:10.650Z,101983.38
2022-10-08T17:07:07.798Z,101988.13
2022-10-08T17:10:05.354Z,101996.59
2022-10-08T17:13:02.419Z,101992.78
2022-10-08T17:16:03.738Z,102001.75
2022-10-08T17:19:01.003Z,102015.91
2022-10-08T17:21:58.554Z,102008.59
2022-10-08T17:24:56.369Z,102002.81
2022-10-08T17:27:53.301Z,102013.16
2022-10-08T17:30:50.768Z,102014.81
2022-10-08T17:33:47.793Z,102018.97
2022-10-08T17:36:44.846Z,102013.66
2022-10-08T17:39:41.868Z,102032.72
2022-10-08T17:42:39.819Z,102037.78
2022-10-08T17:45:36.891Z,102037.38
2022-10-08T17:48:34.373Z,102042.66
2022-10-08T17:51:31.595Z,102048.78
2022-10-08T17:54:28.796Z,102054.25
2022-10-08T17:57:25.533Z,102076.94
2022-10-08T18:00:22.762Z,102066.63
2022-10-08T18:03:20.615Z,102066.00
2022-10-08T18:06:18.162Z,102071.09
2022-10-08T18:09:24.935Z,102080.28
2022-10-08T18:12:22.494Z,102081.75
2022-10-08T18:15:19.769Z,102087.91
2022-10-08T18:18:16.945Z,102096.72
2022-10-08T18:21:16.372Z,102108.31
2022-10-08T18:24:13.839Z,102103.66
2022-10-08T18:27:10.631Z,102120.94
2022-10-08T18:30:08.420Z,102119.47
2022-10-08T18:33:06.443Z,102128.75
2022-10-08T18:36:11.717Z,102138.94
2022-10-08T18:39:13.836Z,102132.19
2022-10-08T18:42:10.878Z,102126.97
2022-10-08T18:45:08.469Z,102127.69
2022-10-08T18:48:05.871Z,102137.50
2022-10-08T18:51:08.281Z,102137.28
2022-10-08T18:54:06.829Z,102138.84
2022-10-08T18:57:03.609Z,102145.47
2022-10-08T19:00:00.748Z,102146.41
2022-10-08T19:02:58.454Z,102142.38
2022-10-08T19:05:55.859Z,102144.16
2022-10-08T19:08:52.951Z,102144.38
2022-10-08T19:11:52.871Z,102147.34
2022-10-08T19:14:51.057Z,102146.63
2022-10-08T19:17:48.952Z,102155.63
2022-10-08T19:20:46.966Z,102158.34
2022-10-08T19:23:44.672Z,102155.16
2022-10-08T19:26:41.741Z,102158.72
2022-10-08T19:29:39.418Z,102163.22
2022-10-08T19:32:36.558Z,102172.00
2022-10-08T19:35:33.511Z,102174.81
2022-10-08T19:38:32.404Z,102177.31
2022-10-08T19:41:30.090Z,102174.97
2022-10-08T19:44:27.988Z,102180.19
2022-10-08T19:47:25.826Z,102174.81
2022-10-08T19:50:22.874Z,102180.84
2022-10-08T19:53:19.751Z,102178.44
2022-10-08T19:56:16.953Z,102191.28
2022-10-08T19:59:13.817Z,102191.19
2022-10-08T20:02:10.961Z,102201.97
2022-10-08T20:05:08.921Z,102206.97
2022-10-08T20:08:05.973Z,102208.97
2022-10-08T20:11:07.431Z,102207.88
2022-10-08T20:14:08.027Z,102191.69
2022-10-08T20:17:06.088Z,102199.59
2022-10-08T20:20:20.923Z,102203.53
2022-10-08T20:23:23.128Z,102220.66
2022-10-08T20:26:27.794Z,102213.28
2022-10-08T20:29:29.980Z,102218.91
2022-10-08T20:32:27.794Z,102210.66
2022-10-08T20:35:24.687Z,102218.56
2022-10-08T20:38:22.279Z,102224.72
2022-10-08T20:41:20.474Z,102225.59
2022-10-08T20:44:18.078Z,102235.34
2022-10-08T20:47:16.048Z,102233.53
2022-10-08T20:50:14.114Z,102240.88
2022-10-08T20:53:11.749Z,102250.13
2022-10-08T20:56:09.986Z,102231.84
2022-10-08T20:59:09.074Z,102254.03
2022-10-08T21:02:07.019Z,102243.84
2022-10-08T21:05:04.853Z,102258.94
2022-10-08T21:08:01.625Z,102268.34
2022-10-08T21:11:02.390Z,102261.84
2022-10-08T21:14:01.720Z,102271.19
2022-10-08T21:16:58.917Z,102261.16
2022-10-08T21:19:55.689Z,102264.88
2022-10-08T21:22:53.153Z,102264.03
2022-10-08T21:25:51.369Z,102251.34
2022-10-08T21:28:50.130Z,102257.81
2022-10-08T21:31:48.016Z,102265.78
2022-10-08T21:34:44.513Z,102263.78
2022-10-08T21:37:42.209Z,102273.94
2022-10-08T21:40:39.853Z,102280.88
2022-10-08T21:43:37.223Z,102276.59
2022-10-08T21:46:37.270Z,102264.88
2022-10-08T21:49:34.935Z,102260.50
2022-10-08T21:52:33.299Z,102269.38
2022-10-08T21:55:30.833Z,102264.63
2022-10-08T21:58:28.455Z,102273.06
2022-10-08T22:01:25.701Z,102272.06
2022-10-08T22:04:24.183Z,102277.88
2022-10-08T22:07:21.823Z,102271.72
2022-10-08T22:10:19.263Z,102267.66
2022-10-08T22:13:17.140Z,102269.16
2022-10-08T22:16:15.623Z,102275.47
2022-10-08T22:19:13.145Z,102289.25
2022-10-08T22:22:11.049Z,102289.53
2022-10-08T22:25:09.182Z,102269.28
2022-10-08T22:28:06.849Z,102267.31
2022-10-08T22:31:04.635Z,102274.56
2022-10-08T22:34:01.899Z,102269.63
2022-10-08T22:36:58.862Z,102264.50
2022-10-08T22:39:55.782Z,102252.34
2022-10-08T22:42:52.865Z,102256.03
2022-10-08T22:45:50.012Z,102262.81
2022-10-08T22:48:47.116Z,102259.81
2022-10-08T22:51:44.793Z,102263.66
2022-10-08T22:54:41.858Z,102255.16
2022-10-08T22:57:39.873Z,102259.97
2022-10-08T23:00:36.697Z,102259.47
2022-10-08T23:03:34.139Z,102249.31
2022-10-08T23:06:35.199Z,102249.13
2022-10-08T23:09:32.878Z,102250.09
2022-10-08T23:12:29.943Z,102250.41
2022-10-08T23:15:27.053Z,102255.88
2022-10-08T23:18:24.980Z,102255.69
2022-10-08T23:21:23.193Z,102254.28
2022-10-08T23:24:21.002Z,102257.75
2022-10-08T23:27:17.665Z,102277.25
2022-10-08T23:30:41.222Z,102264.72
2022-10-08T23:33:32.737Z,102273.59
2022-10-08T23:36:31.940Z,102267.97
2022-10-08T23:39:28.943Z,102269.25
2022-10-08T23:42:25.754Z,102282.75
2022-10-08T23:45:22.878Z,102293.56
2022-10-08T23:48:19.869Z,102280.28
2022-10-08T23:51:17.482Z,102275.75
2022-10-08T23:54:14.721Z,102275.56
2022-10-08T23:57:11.611Z,102267.03
